sensor_id;sensor_type;location;lat;lon;timestamp;pressure;altitude;pressure_sealevel;temperature;humidity
44992;BME280;56865;51.618;7.406;2022-07-21T00:00:34;101024.72;;;29.77;100.00
44992;BME280;56865;51.618;7.406;2022-07-21T00:03:04;101012.78;;;29.70;100.00
44992;BME280;56865;51.618;7.406;2022-07-21T00:05:34;101015.78;;;29.62;100.00
44992;BME280;56865;51.618;7.406;2022-07-21T00:08:04;101012.66;;;29.54;100.00
44992;BME280;56865;51.618;7.406;2022-07-21T00:14:03;101009.31;;;29.50;100.00
44992;BME280;56865;51.618;7.406;2022-07-21T00:16:34;101006.75;;;29.30;100.00
44992;BME280;56865;51.618;7.406;2022-07-21T00:19:06;100996.69;;;29.40;100.00
44992;BME280;56865;51.618;7.406;2022-07-21T00:21:36;101002.63;;;29.43;100.00
44992;BME280;56865;51.618;7.406;2022-07-21T00:24:06;100998.31;;;29.42;100.00
44992;BME280;56865;51.618;7.406;2022-07-21T00:26:36;100996.25;;;29.30;100.00
44992;BME280;56865;51.618;7.406;2022-07-21T00:29:09;100993.81;;;29.25;100.00
44992;BME280;56865;51.618;7.406;2022-07-21T00:31:39;100999.22;;;29.22;100.00
44992;BME280;56865;51.618;7.406;2022-07-21T00:34:09;100999.41;;;29.17;100.00
44992;BME280;56865;51.618;7.406;2022-07-21T00:40:07;100992.25;;;29.02;100.00
44992;BME280;56865;51.618;7.406;2022-07-21T00:42:36;100991.28;;;29.03;100.00
44992;BME280;56865;51.618;7.406;2022-07-21T00:45:08;100995.34;;;28.91;100.00
44992;BME280;56865;51.618;7.406;2022-07-21T00:47:37;100993.34;;;28.96;100.00
44992;BME280;56865;51.618;7.406;2022-07-21T00:50:11;100996.00;;;29.15;100.00
44992;BME280;56865;51.618;7.406;2022-07-21T00:52:41;101004.59;;;29.19;100.00
44992;BME280;56865;51.618;7.406;2022-07-21T00:55:13;100990.97;;;29.11;100.00
44992;BME280;56865;51.618;7.406;2022-07-21T00:57:44;100993.81;;;29.25;100.00
44992;BME280;56865;51.618;7.406;2022-07-21T01:00:19;100991.00;;;29.30;100.00
44992;BME280;56865;51.618;7.406;2022-07-21T01:02:49;100991.75;;;29.13;100.00
44992;BME280;56865;51.618;7.406;2022-07-21T01:05:19;100996.13;;;28.93;100.00
44992;BME280;56865;51.618;7.406;2022-07-21T01:07:50;101002.50;;;28.88;100.00
44992;BME280;56865;51.618;7.406;2022-07-21T01:10:24;101005.56;;;28.97;100.00
44992;BME280;56865;51.618;7.406;2022-07-21T01:12:53;101014.06;;;28.83;100.00
44992;BME280;56865;51.618;7.406;2022-07-21T01:15:26;101005.19;;;28.86;100.00
44992;BME280;56865;51.618;7.406;2022-07-21T01:17:57;101009.72;;;29.22;100.00
44992;BME280;56865;51.618;7.406;2022-07-21T01:20:32;101016.22;;;28.74;100.00
44992;BME280;56865;51.618;7.406;2022-07-21T01:23:05;101017.88;;;28.54;100.00
44992;BME280;56865;51.618;7.406;2022-07-21T01:25:35;101022.56;;;28.89;100.00
44992;BME280;56865;51.618;7.406;2022-07-21T01:28:04;101026.53;;;28.78;100.00
44992;BME280;56865;51.618;7.406;2022-07-21T01:30:34;101031.44;;;28.86;100.00
44992;BME280;56865;51.618;7.406;2022-07-21T01:33:04;101034.06;;;28.86;100.00
44992;BME280;56865;51.618;7.406;2022-07-21T01:35:34;101033.03;;;28.69;100.00
44992;BME280;56865;51.618;7.406;2022-07-21T01:38:06;101026.63;;;28.75;100.00
44992;BME280;56865;51.618;7.406;2022-07-21T01:40:57;101021.56;;;28.50;100.00
44992;BME280;56865;51.618;7.406;2022-07-21T01:43:39;101019.22;;;28.64;100.00
44992;BME280;56865;51.618;7.406;2022-07-21T01:46:10;101015.16;;;28.78;100.00
44992;BME280;56865;51.618;7.406;2022-07-21T01:48:42;100997.63;;;28.99;100.00
44992;BME280;56865;51.618;7.406;2022-07-21T01:51:12;100993.69;;;29.47;100.00
44992;BME280;56865;51.618;7.406;2022-07-21T01:53:45;101002.97;;;29.55;100.00
44992;BME280;56865;51.618;7.406;2022-07-21T01:56:18;100997.25;;;28.88;100.00
44992;BME280;56865;51.618;7.406;2022-07-21T01:58:49;101004.59;;;28.59;100.00
44992;BME280;56865;51.618;7.406;2022-07-21T02:01:22;101012.72;;;28.52;100.00
44992;BME280;56865;51.618;7.406;2022-07-21T02:03:53;101016.78;;;28.80;100.00
44992;BME280;56865;51.618;7.406;2022-07-21T02:06:24;101025.47;;;28.82;100.00
44992;BME280;56865;51.618;7.406;2022-07-21T02:08:57;101018.00;;;28.73;100.00
44992;BME280;56865;51.618;7.406;2022-07-21T02:11:27;101018.91;;;28.72;100.00
44992;BME280;56865;51.618;7.406;2022-07-21T02:13:57;101024.81;;;28.57;100.00
44992;BME280;56865;51.618;7.406;2022-07-21T02:16:28;101012.72;;;28.52;100.00
44992;BME280;56865;51.618;7.406;2022-07-21T02:18:59;101017.94;;;28.52;100.00
44992;BME280;56865;51.618;7.406;2022-07-21T02:21:29;101011.00;;;28.51;100.00
44992;BME280;56865;51.618;7.406;2022-07-21T02:24:01;101012.13;;;28.25;100.00
44992;BME280;56865;51.618;7.406;2022-07-21T02:26:31;101013.22;;;28.19;100.00
44992;BME280;56865;51.618;7.406;2022-07-21T02:29:01;101016.97;;;28.34;100.00
44992;BME280;56865;51.618;7.406;2022-07-21T02:31:31;101017.44;;;28.44;100.00
44992;BME280;56865;51.618;7.406;2022-07-21T02:34:01;101015.41;;;28.30;100.00
44992;BME280;56865;51.618;7.406;2022-07-21T02:36:33;101025.03;;;28.30;100.00
44992;BME280;56865;51.618;7.406;2022-07-21T02:39:05;101029.09;;;28.16;100.00
44992;BME280;56865;51.618;7.406;2022-07-21T02:41:35;101027.63;;;28.09;100.00
44992;BME280;56865;51.618;7.406;2022-07-21T02:44:05;101036.97;;;27.93;100.00
44992;BME280;56865;51.618;7.406;2022-07-21T02:46:35;101031.75;;;27.93;100.00
44992;BME280;56865;51.618;7.406;2022-07-21T02:49:05;101035.25;;;27.92;100.00
44992;BME280;56865;51.618;7.406;2022-07-21T02:51:34;101034.25;;;27.72;100.00
44992;BME280;56865;51.618;7.406;2022-07-21T02:54:07;101040.69;;;29.14;100.00
44992;BME280;56865;51.618;7.406;2022-07-21T02:56:37;101035.16;;;29.41;100.00
44992;BME280;56865;51.618;7.406;2022-07-21T02:59:06;101029.97;;;29.39;100.00
44992;BME280;56865;51.618;7.406;2022-07-21T03:01:36;101026.00;;;28.91;100.00
44992;BME280;56865;51.618;7.406;2022-07-21T03:04:10;101014.34;;;29.17;100.00
44992;BME280;56865;51.618;7.406;2022-07-21T03:06:41;101012.66;;;29.14;100.00
44992;BME280;56865;51.618;7.406;2022-07-21T03:09:14;101005.75;;;28.93;100.00
44992;BME280;56865;51.618;7.406;2022-07-21T03:11:44;101009.50;;;28.66;100.00
44992;BME280;56865;51.618;7.406;2022-07-21T03:14:14;101014.13;;;28.82;100.00
44992;BME280;56865;51.618;7.406;2022-07-21T03:16:44;101013.84;;;28.47;100.00
44992;BME280;56865;51.618;7.406;2022-07-21T03:19:13;101004.09;;;28.71;100.00
44992;BME280;56865;51.618;7.406;2022-07-21T03:21:43;101002.16;;;28.95;100.00
44992;BME280;56865;51.618;7.406;2022-07-21T03:24:16;101004.31;;;28.65;100.00
44992;BME280;56865;51.618;7.406;2022-07-21T03:26:46;101000.53;;;28.09;100.00
44992;BME280;56865;51.618;7.406;2022-07-21T03:29:16;100996.38;;;28.25;100.00
44992;BME280;56865;51.618;7.406;2022-07-21T03:31:46;101009.41;;;28.69;100.00
44992;BME280;56865;51.618;7.406;2022-07-21T03:34:15;100997.19;;;28.48;100.00
44992;BME280;56865;51.618;7.406;2022-07-21T03:36:45;100992.00;;;28.26;100.00
44992;BME280;56865;51.618;7.406;2022-07-21T03:39:18;100995.16;;;27.89;100.00
44992;BME280;56865;51.618;7.406;2022-07-21T03:41:47;101004.03;;;28.30;100.00
44992;BME280;56865;51.618;7.406;2022-07-21T03:44:17;101000.50;;;28.10;100.00
44992;BME280;56865;51.618;7.406;2022-07-21T03:46:47;101001.03;;;27.74;100.00
44992;BME280;56865;51.618;7.406;2022-07-21T03:49:18;101000.59;;;28.07;100.00
44992;BME280;56865;51.618;7.406;2022-07-21T03:51:49;100993.91;;;27.78;100.00
44992;BME280;56865;51.618;7.406;2022-07-21T03:54:22;100988.56;;;27.57;100.00
44992;BME280;56865;51.618;7.406;2022-07-21T03:56:51;100970.84;;;27.41;100.00
44992;BME280;56865;51.618;7.406;2022-07-21T03:59:21;100970.50;;;27.27;100.00
44992;BME280;56865;51.618;7.406;2022-07-21T04:01:51;100971.28;;;27.53;100.00
44992;BME280;56865;51.618;7.406;2022-07-21T04:04:21;100965.50;;;27.21;100.00
44992;BME280;56865;51.618;7.406;2022-07-21T04:06:51;100957.13;;;27.57;100.00
44992;BME280;56865;51.618;7.406;2022-07-21T04:09:24;100955.41;;;27.10;100.00
44992;BME280;56865;51.618;7.406;2022-07-21T04:11:53;100955.22;;;27.38;100.00
44992;BME280;56865;51.618;7.406;2022-07-21T04:14:23;100960.19;;;27.46;100.00
44992;BME280;56865;51.618;7.406;2022-07-21T04:16:53;100957.50;;;27.24;100.00
44992;BME280;56865;51.618;7.406;2022-07-21T04:19:23;100953.63;;;27.34;100.00
44992;BME280;56865;51.618;7.406;2022-07-21T04:21:53;100963.19;;;27.35;100.00
44992;BME280;56865;51.618;7.406;2022-07-21T04:24:25;100960.81;;;27.53;100.00
44992;BME280;56865;51.618;7.406;2022-07-21T04:26:55;100954.78;;;27.73;100.00
44992;BME280;56865;51.618;7.406;2022-07-21T04:29:29;100956.53;;;27.50;100.00
44992;BME280;56865;51.618;7.406;2022-07-21T04:31:59;100947.03;;;27.48;100.00
44992;BME280;56865;51.618;7.406;2022-07-21T04:34:28;100942.41;;;27.54;100.00
44992;BME280;56865;51.618;7.406;2022-07-21T04:36:58;100944.97;;;27.78;100.00
44992;BME280;56865;51.618;7.406;2022-07-21T04:39:31;100939.34;;;27.43;100.00
44992;BME280;56865;51.618;7.406;2022-07-21T04:42:01;100941.00;;;27.46;100.00
44992;BME280;56865;51.618;7.406;2022-07-21T04:44:31;100950.50;;;27.48;100.00
44992;BME280;56865;51.618;7.406;2022-07-21T04:47:00;100950.78;;;27.17;100.00
44992;BME280;56865;51.618;7.406;2022-07-21T04:49:30;100952.44;;;27.19;100.00
44992;BME280;56865;51.618;7.406;2022-07-21T04:52:00;100952.44;;;27.43;100.00
44992;BME280;56865;51.618;7.406;2022-07-21T04:54:34;100963.41;;;27.05;100.00
44992;BME280;56865;51.618;7.406;2022-07-21T04:57:04;100961.84;;;27.01;100.00
44992;BME280;56865;51.618;7.406;2022-07-21T04:59:34;100961.28;;;27.40;100.00
44992;BME280;56865;51.618;7.406;2022-07-21T05:02:05;100965.03;;;27.09;100.00
44992;BME280;56865;51.618;7.406;2022-07-21T05:04:36;100961.72;;;27.52;100.00
44992;BME280;56865;51.618;7.406;2022-07-21T05:07:06;100963.88;;;27.40;100.00
44992;BME280;56865;51.618;7.406;2022-07-21T05:09:39;100962.50;;;27.30;100.00
44992;BME280;56865;51.618;7.406;2022-07-21T05:12:09;100964.22;;;27.77;100.00
44992;BME280;56865;51.618;7.406;2022-07-21T05:14:38;100972.13;;;27.98;100.00
44992;BME280;56865;51.618;7.406;2022-07-21T05:17:08;100969.63;;;27.50;100.00
44992;BME280;56865;51.618;7.406;2022-07-21T05:19:44;100975.91;;;27.68;100.00
44992;BME280;56865;51.618;7.406;2022-07-21T05:22:25;100974.94;;;27.71;100.00
44992;BME280;56865;51.618;7.406;2022-07-21T05:24:57;100978.72;;;28.08;100.00
44992;BME280;56865;51.618;7.406;2022-07-21T05:27:27;100975.09;;;28.33;100.00
44992;BME280;56865;51.618;7.406;2022-07-21T05:29:57;100971.47;;;28.56;100.00
44992;BME280;56865;51.618;7.406;2022-07-21T05:32:27;100966.41;;;28.51;100.00
44992;BME280;56865;51.618;7.406;2022-07-21T05:34:58;100975.88;;;28.56;100.00
44992;BME280;56865;51.618;7.406;2022-07-21T05:37:27;100968.50;;;28.22;100.00
44992;BME280;56865;51.618;7.406;2022-07-21T05:40:00;100967.41;;;28.49;100.00
44992;BME280;56865;51.618;7.406;2022-07-21T05:42:30;100960.59;;;28.02;100.00
44992;BME280;56865;51.618;7.406;2022-07-21T05:45:00;100963.22;;;28.24;100.00
44992;BME280;56865;51.618;7.406;2022-07-21T05:47:30;100968.53;;;28.43;100.00
44992;BME280;56865;51.618;7.406;2022-07-21T05:50:01;100965.00;;;28.01;100.00
44992;BME280;56865;51.618;7.406;2022-07-21T05:52:31;100979.19;;;28.18;100.00
44992;BME280;56865;51.618;7.406;2022-07-21T05:55:04;100976.00;;;28.32;100.00
44992;BME280;56865;51.618;7.406;2022-07-21T05:57:35;100973.34;;;28.11;100.00
44992;BME280;56865;51.618;7.406;2022-07-21T06:00:12;100984.91;;;28.48;100.00
44992;BME280;56865;51.618;7.406;2022-07-21T06:02:42;100980.00;;;28.41;100.00
44992;BME280;56865;51.618;7.406;2022-07-21T06:05:12;100982.25;;;28.07;100.00
44992;BME280;56865;51.618;7.406;2022-07-21T06:07:42;100981.25;;;28.32;100.00
44992;BME280;56865;51.618;7.406;2022-07-21T06:10:15;100983.41;;;28.22;100.00
44992;BME280;56865;51.618;7.406;2022-07-21T06:12:49;100991.25;;;28.22;100.00
44992;BME280;56865;51.618;7.406;2022-07-21T06:15:19;100981.50;;;28.05;100.00
44992;BME280;56865;51.618;7.406;2022-07-21T06:17:49;100981.50;;;28.46;100.00
44992;BME280;56865;51.618;7.406;2022-07-21T06:20:19;100984.25;;;28.43;100.00
44992;BME280;56865;51.618;7.406;2022-07-21T06:22:48;100981.22;;;28.52;100.00
44992;BME280;56865;51.618;7.406;2022-07-21T06:25:21;100985.72;;;28.71;100.00
44992;BME280;56865;51.618;7.406;2022-07-21T06:27:51;100980.00;;;28.82;100.00
44992;BME280;56865;51.618;7.406;2022-07-21T06:30:21;100982.84;;;28.57;100.00
44992;BME280;56865;51.618;7.406;2022-07-21T06:32:51;100982.56;;;28.42;100.00
44992;BME280;56865;51.618;7.406;2022-07-21T06:35:21;100992.75;;;28.70;100.00
44992;BME280;56865;51.618;7.406;2022-07-21T06:37:51;100993.91;;;28.63;100.00
44992;BME280;56865;51.618;7.406;2022-07-21T06:40:24;101005.28;;;28.21;100.00
44992;BME280;56865;51.618;7.406;2022-07-21T06:42:54;101009.09;;;28.34;100.00
44992;BME280;56865;51.618;7.406;2022-07-21T06:45:44;101006.19;;;27.98;100.00
44992;BME280;56865;51.618;7.406;2022-07-21T06:48:14;101003.41;;;28.45;100.00
44992;BME280;56865;51.618;7.406;2022-07-21T06:50:43;101004.91;;;28.51;100.00
44992;BME280;56865;51.618;7.406;2022-07-21T06:53:13;101004.09;;;28.08;100.00
44992;BME280;56865;51.618;7.406;2022-07-21T06:55:46;101000.91;;;28.21;100.00
44992;BME280;56865;51.618;7.406;2022-07-21T06:58:28;101012.34;;;27.97;100.00
44992;BME280;56865;51.618;7.406;2022-07-21T07:01:06;101010.59;;;28.19;100.00
44992;BME280;56865;51.618;7.406;2022-07-21T07:03:36;101013.31;;;27.94;100.00
44992;BME280;56865;51.618;7.406;2022-07-21T07:06:08;101012.56;;;28.14;100.00
44992;BME280;56865;51.618;7.406;2022-07-21T07:08:38;101014.91;;;27.76;100.00
44992;BME280;56865;51.618;7.406;2022-07-21T07:11:13;101013.59;;;28.10;100.00
44992;BME280;56865;51.618;7.406;2022-07-21T07:13:44;101014.19;;;28.17;100.00
44992;BME280;56865;51.618;7.406;2022-07-21T07:16:25;101011.13;;;27.83;100.00
44992;BME280;56865;51.618;7.406;2022-07-21T07:18:55;101013.25;;;27.51;100.00
44992;BME280;56865;51.618;7.406;2022-07-21T07:21:25;101009.38;;;28.06;100.00
44992;BME280;56865;51.618;7.406;2022-07-21T07:23:55;101010.66;;;27.73;100.00
44992;BME280;56865;51.618;7.406;2022-07-21T07:26:27;100999.19;;;27.76;100.00
44992;BME280;56865;51.618;7.406;2022-07-21T07:28:57;101008.63;;;27.80;100.00
44992;BME280;56865;51.618;7.406;2022-07-21T07:31:27;101008.94;;;27.95;100.00
44992;BME280;56865;51.618;7.406;2022-07-21T07:33:57;101010.16;;;27.86;100.00
44992;BME280;56865;51.618;7.406;2022-07-21T07:36:27;101021.88;;;28.21;100.00
44992;BME280;56865;51.618;7.406;2022-07-21T07:38:58;101027.84;;;28.66;100.00
44992;BME280;56865;51.618;7.406;2022-07-21T07:41:31;101020.56;;;28.75;100.00
44992;BME280;56865;51.618;7.406;2022-07-21T07:44:01;101020.56;;;28.75;100.00
44992;BME280;56865;51.618;7.406;2022-07-21T07:46:31;101032.53;;;28.80;100.00
44992;BME280;56865;51.618;7.406;2022-07-21T07:49:01;101027.06;;;28.44;100.00
44992;BME280;56865;51.618;7.406;2022-07-21T07:51:41;101021.53;;;28.72;100.00
44992;BME280;56865;51.618;7.406;2022-07-21T07:54:11;101029.63;;;28.66;100.00
44992;BME280;56865;51.618;7.406;2022-07-21T07:56:44;101031.88;;;28.12;100.00
44992;BME280;56865;51.618;7.406;2022-07-21T07:59:14;101032.38;;;28.42;100.00
44992;BME280;56865;51.618;7.406;2022-07-21T08:01:44;101035.75;;;28.24;100.00
44992;BME280;56865;51.618;7.406;2022-07-21T08:04:13;101032.44;;;28.41;100.00
44992;BME280;56865;51.618;7.406;2022-07-21T08:06:43;101028.34;;;28.56;100.00
44992;BME280;56865;51.618;7.406;2022-07-21T08:09:13;101033.59;;;28.76;100.00
44992;BME280;56865;51.618;7.406;2022-07-21T08:11:48;101032.50;;;28.82;100.00
44992;BME280;56865;51.618;7.406;2022-07-21T08:14:19;101028.50;;;28.73;100.00
44992;BME280;56865;51.618;7.406;2022-07-21T08:16:48;101033.19;;;28.44;100.00
44992;BME280;56865;51.618;7.406;2022-07-21T08:19:18;101025.56;;;28.59;100.00
44992;BME280;56865;51.618;7.406;2022-07-21T08:21:48;101017.88;;;28.54;100.00
44992;BME280;56865;51.618;7.406;2022-07-21T08:24:38;101018.22;;;28.46;100.00
44992;BME280;56865;51.618;7.406;2022-07-21T08:27:10;101012.63;;;28.54;100.00
44992;BME280;56865;51.618;7.406;2022-07-21T08:29:40;101023.09;;;28.56;100.00
44992;BME280;56865;51.618;7.406;2022-07-21T08:32:11;101026.91;;;28.90;100.00
44992;BME280;56865;51.618;7.406;2022-07-21T08:34:41;101024.16;;;28.72;100.00
44992;BME280;56865;51.618;7.406;2022-07-21T08:37:10;101024.66;;;28.80;100.00
44992;BME280;56865;51.618;7.406;2022-07-21T08:39:40;101022.25;;;28.76;100.00
44992;BME280;56865;51.618;7.406;2022-07-21T08:42:13;101026.44;;;28.80;100.00
44992;BME280;56865;51.618;7.406;2022-07-21T08:44:44;101022.53;;;29.09;100.00
44992;BME280;56865;51.618;7.406;2022-07-21T08:47:13;101015.22;;;28.97;100.00
44992;BME280;56865;51.618;7.406;2022-07-21T08:49:46;101017.84;;;28.76;100.00
44992;BME280;56865;51.618;7.406;2022-07-21T08:52:16;101017.63;;;29.21;100.00
44992;BME280;56865;51.618;7.406;2022-07-21T08:54:47;101023.81;;;28.80;100.00
44992;BME280;56865;51.618;7.406;2022-07-21T08:57:19;101030.56;;;29.25;100.00
44992;BME280;56865;51.618;7.406;2022-07-21T08:59:49;101023.16;;;29.14;100.00
44992;BME280;56865;51.618;7.406;2022-07-21T09:02:27;101020.72;;;29.49;100.00
44992;BME280;56865;51.618;7.406;2022-07-21T09:04:57;101024.44;;;29.45;100.00
44992;BME280;56865;51.618;7.406;2022-07-21T09:07:28;101025.69;;;29.56;100.00
44992;BME280;56865;51.618;7.406;2022-07-21T09:10:00;101028.34;;;29.56;100.00
44992;BME280;56865;51.618;7.406;2022-07-21T09:12:48;101013.72;;;29.31;100.00
44992;BME280;56865;51.618;7.406;2022-07-21T09:15:21;101015.97;;;29.19;100.00
44992;BME280;56865;51.618;7.406;2022-07-21T09:18:04;101017.44;;;29.06;100.00
44992;BME280;56865;51.618;7.406;2022-07-21T09:20:39;101010.84;;;28.77;100.00
44992;BME280;56865;51.618;7.406;2022-07-21T09:23:18;101015.75;;;28.84;100.00
44992;BME280;56865;51.618;7.406;2022-07-21T09:25:51;101010.63;;;29.02;100.00
44992;BME280;56865;51.618;7.406;2022-07-21T09:28:25;101012.34;;;28.82;100.00
44992;BME280;56865;51.618;7.406;2022-07-21T09:31:00;101013.06;;;28.65;100.00
44992;BME280;56865;51.618;7.406;2022-07-21T09:33:33;101013.06;;;28.65;100.00
44992;BME280;56865;51.618;7.406;2022-07-21T09:36:05;101021.97;;;28.61;100.00
44992;BME280;56865;51.618;7.406;2022-07-21T09:38:36;101013.03;;;28.67;100.00
44992;BME280;56865;51.618;7.406;2022-07-21T09:41:10;101015.06;;;28.59;100.00
44992;BME280;56865;51.618;7.406;2022-07-21T09:43:45;101009.41;;;29.09;100.00
44992;BME280;56865;51.618;7.406;2022-07-21T09:46:17;101008.38;;;28.93;100.00
44992;BME280;56865;51.618;7.406;2022-07-21T09:48:49;101011.28;;;28.66;100.00
44992;BME280;56865;51.618;7.406;2022-07-21T09:51:39;101023.84;;;28.37;100.00
44992;BME280;56865;51.618;7.406;2022-07-21T09:54:12;101025.75;;;28.33;100.00
44992;BME280;56865;51.618;7.406;2022-07-21T09:56:44;101022.03;;;28.39;100.00
44992;BME280;56865;51.618;7.406;2022-07-21T09:59:17;101025.53;;;28.81;100.00
44992;BME280;56865;51.618;7.406;2022-07-21T10:02:11;101021.84;;;29.25;100.00
44992;BME280;56865;51.618;7.406;2022-07-21T10:04:48;101023.47;;;29.27;100.00
44992;BME280;56865;51.618;7.406;2022-07-21T10:07:36;101022.22;;;29.17;100.00
44992;BME280;56865;51.618;7.406;2022-07-21T10:10:08;101024.88;;;29.15;100.00
44992;BME280;56865;51.618;7.406;2022-07-21T10:12:38;101030.25;;;29.33;100.00
44992;BME280;56865;51.618;7.406;2022-07-21T10:15:11;101027.34;;;29.77;100.00
44992;BME280;56865;51.618;7.406;2022-07-21T10:17:42;101032.66;;;29.57;100.00
44992;BME280;56865;51.618;7.406;2022-07-21T10:20:18;101034.50;;;29.35;100.00
44992;BME280;56865;51.618;7.406;2022-07-21T10:22:57;101028.22;;;29.40;100.00
44992;BME280;56865;51.618;7.406;2022-07-21T10:25:29;101025.06;;;29.70;100.00
44992;BME280;56865;51.618;7.406;2022-07-21T10:28:13;101036.56;;;29.67;100.00
44992;BME280;56865;51.618;7.406;2022-07-21T10:30:48;101036.94;;;29.40;100.00
44992;BME280;56865;51.618;7.406;2022-07-21T10:33:21;101039.19;;;29.67;100.00
44992;BME280;56865;51.618;7.406;2022-07-21T10:35:52;101039.47;;;29.80;100.00
44992;BME280;56865;51.618;7.406;2022-07-21T10:38:33;101037.97;;;29.74;100.00
44992;BME280;56865;51.618;7.406;2022-07-21T10:41:05;101035.22;;;29.96;100.00
44992;BME280;56865;51.618;7.406;2022-07-21T10:43:42;101025.63;;;29.76;100.00
44992;BME280;56865;51.618;7.406;2022-07-21T10:46:37;101036.91;;;29.78;100.00
44992;BME280;56865;51.618;7.406;2022-07-21T10:49:08;101034.59;;;29.91;100.00
44992;BME280;56865;51.618;7.406;2022-07-21T10:51:38;101038.47;;;29.82;100.00
44992;BME280;56865;51.618;7.406;2022-07-21T10:54:26;101034.50;;;29.93;100.00
44992;BME280;56865;51.618;7.406;2022-07-21T10:57:25;101038.13;;;29.90;99.96
44992;BME280;56865;51.618;7.406;2022-07-21T11:00:23;101023.72;;;29.80;100.00
44992;BME280;56865;51.618;7.406;2022-07-21T11:02:58;101027.63;;;29.90;97.16
44992;BME280;56865;51.618;7.406;2022-07-21T11:05:30;101033.81;;;29.51;96.57
44992;BME280;56865;51.618;7.406;2022-07-21T11:08:18;101025.50;;;29.60;97.56
44992;BME280;56865;51.618;7.406;2022-07-21T11:10:50;101022.44;;;29.89;98.57
44992;BME280;56865;51.618;7.406;2022-07-21T11:13:21;101025.97;;;29.49;97.18
44992;BME280;56865;51.618;7.406;2022-07-21T11:15:57;101019.44;;;29.96;96.62
44992;BME280;56865;51.618;7.406;2022-07-21T11:18:31;101032.16;;;30.23;97.50
44992;BME280;56865;51.618;7.406;2022-07-21T11:21:12;101020.25;;;29.60;95.72
44992;BME280;56865;51.618;7.406;2022-07-21T11:23:44;101025.47;;;29.79;94.87
44992;BME280;56865;51.618;7.406;2022-07-21T11:26:17;101032.03;;;29.51;93.40
44992;BME280;56865;51.618;7.406;2022-07-21T11:28:47;101039.06;;;29.70;93.94
44992;BME280;56865;51.618;7.406;2022-07-21T11:31:18;101041.53;;;29.73;93.56
44992;BME280;56865;51.618;7.406;2022-07-21T11:33:53;101058.09;;;29.75;100.00
44992;BME280;56865;51.618;7.406;2022-07-21T11:36:26;101038.72;;;29.40;100.00
44992;BME280;56865;51.618;7.406;2022-07-21T11:38:58;101051.97;;;29.37;100.00
44992;BME280;56865;51.618;7.406;2022-07-21T11:41:28;101046.09;;;29.50;100.00
44992;BME280;56865;51.618;7.406;2022-07-21T11:43:58;101055.16;;;29.43;100.00
44992;BME280;56865;51.618;7.406;2022-07-21T11:46:44;101056.19;;;29.60;100.00
44992;BME280;56865;51.618;7.406;2022-07-21T11:49:17;101052.34;;;29.48;100.00
44992;BME280;56865;51.618;7.406;2022-07-21T11:51:48;101054.41;;;29.60;100.00
44992;BME280;56865;51.618;7.406;2022-07-21T11:54:20;101040.00;;;29.31;100.00
44992;BME280;56865;51.618;7.406;2022-07-21T11:56:51;101047.38;;;29.02;100.00
44992;BME280;56865;51.618;7.406;2022-07-21T11:59:21;101046.41;;;29.24;100.00
44992;BME280;56865;51.618;7.406;2022-07-21T12:02:02;101048.66;;;29.12;100.00
44992;BME280;56865;51.618;7.406;2022-07-21T12:04:41;101053.44;;;28.61;100.00
44992;BME280;56865;51.618;7.406;2022-07-21T12:07:17;101050.00;;;28.81;100.00
44992;BME280;56865;51.618;7.406;2022-07-21T12:09:50;101065.78;;;29.00;100.00
44992;BME280;56865;51.618;7.406;2022-07-21T12:12:38;101049.00;;;28.63;100.00
44992;BME280;56865;51.618;7.406;2022-07-21T12:15:14;101053.00;;;29.13;100.00
44992;BME280;56865;51.618;7.406;2022-07-21T12:17:46;101057.72;;;29.05;100.00
44992;BME280;56865;51.618;7.406;2022-07-21T12:20:25;101049.28;;;28.98;100.00
44992;BME280;56865;51.618;7.406;2022-07-21T12:22:59;101050.25;;;28.75;100.00
44992;BME280;56865;51.618;7.406;2022-07-21T12:25:38;101054.72;;;28.73;100.00
44992;BME280;56865;51.618;7.406;2022-07-21T12:28:11;101047.28;;;28.62;100.00
44992;BME280;56865;51.618;7.406;2022-07-21T12:30:46;101057.03;;;28.59;100.00
44992;BME280;56865;51.618;7.406;2022-07-21T12:33:19;101054.91;;;28.68;100.00
44992;BME280;56865;51.618;7.406;2022-07-21T12:39:25;101055.38;;;28.35;100.00
44992;BME280;56865;51.618;7.406;2022-07-21T12:42:31;101058.75;;;28.60;100.00
44992;BME280;56865;51.618;7.406;2022-07-21T12:45:12;101064.41;;;28.50;100.00
44992;BME280;56865;51.618;7.406;2022-07-21T12:47:43;101060.56;;;28.58;100.00
44992;BME280;56865;51.618;7.406;2022-07-21T12:50:35;101058.69;;;28.41;100.00
44992;BME280;56865;51.618;7.406;2022-07-21T12:53:11;101049.44;;;28.52;100.00
44992;BME280;56865;51.618;7.406;2022-07-21T12:55:47;101054.00;;;28.47;100.00
44992;BME280;56865;51.618;7.406;2022-07-21T12:58:18;101056.16;;;28.80;100.00
44992;BME280;56865;51.618;7.406;2022-07-21T13:00:49;101055.47;;;28.54;100.00
44992;BME280;56865;51.618;7.406;2022-07-21T13:03:19;101057.59;;;28.88;100.00
44992;BME280;56865;51.618;7.406;2022-07-21T13:05:56;101051.50;;;28.87;100.00
44992;BME280;56865;51.618;7.406;2022-07-21T13:08:26;101056.97;;;28.60;100.00
44992;BME280;56865;51.618;7.406;2022-07-21T13:10:59;101055.56;;;28.31;100.00
44992;BME280;56865;51.618;7.406;2022-07-21T13:13:29;101053.09;;;28.48;100.00
44992;BME280;56865;51.618;7.406;2022-07-21T13:15:59;101053.28;;;28.44;100.00
44992;BME280;56865;51.618;7.406;2022-07-21T13:18:29;101052.00;;;29.16;100.00